Time;durP1;ratioP1;P1;durP2;ratioP2;P2;SDS_P1;SDS_P2;PMS_P1;PMS_P2;Temp;Humidity;BMP_temperature;BMP_pressure;BME280_temperature;BME280_humidity;BME280_pressure;Samples;Min_cycle;Max_cycle;Signal;HPM_P1;HPM_P2
2023/12/19 00:00:19;;;;;;;1.17;0.70;;;23.50;45.00;;;;;;5114289;28;20027;-39
2023/12/19 00:02:46;;;;;;;1.00;0.65;;;23.60;45.00;;;;;;5109303;28;20028;-39
2023/12/19 00:05:12;;;;;;;0.75;0.70;;;23.60;44.80;;;;;;5109543;28;20034;-39
2023/12/19 00:07:38;;;;;;;0.68;0.52;;;23.70;44.90;;;;;;5109299;28;20031;-39
2023/12/19 00:10:04;;;;;;;1.33;0.70;;;23.80;44.90;;;;;;5108739;28;20050;-39
2023/12/19 00:12:31;;;;;;;0.55;0.50;;;23.80;44.90;;;;;;5111409;28;20031;-39
2023/12/19 00:14:57;;;;;;;0.57;0.57;;;23.80;44.90;;;;;;5111981;28;20043;-39
2023/12/19 00:17:23;;;;;;;0.50;0.50;;;23.90;44.80;;;;;;5114238;28;20050;-39
2023/12/19 00:19:49;;;;;;;0.50;0.50;;;24.00;44.70;;;;;;5110506;28;20043;-38
2023/12/19 00:22:15;;;;;;;0.50;0.50;;;24.00;44.50;;;;;;5110690;28;20031;-39
2023/12/19 00:24:41;;;;;;;0.52;0.40;;;24.10;44.40;;;;;;5112123;28;20027;-39
2023/12/19 00:27:07;;;;;;;0.88;0.50;;;24.10;44.30;;;;;;5112670;28;20028;-40
2023/12/19 00:29:33;;;;;;;2.15;0.55;;;24.10;44.40;;;;;;5107526;28;20028;-39
2023/12/19 00:32:00;;;;;;;0.80;0.47;;;24.10;44.50;;;;;;5120337;28;20035;-39
2023/12/19 00:34:26;;;;;;;0.40;0.40;;;24.20;44.50;;;;;;5118304;28;20042;-40
2023/12/19 00:36:52;;;;;;;0.50;0.47;;;24.30;44.30;;;;;;5117951;28;20032;-40
2023/12/19 00:39:18;;;;;;;3.15;0.60;;;24.30;44.50;;;;;;5116867;28;20042;-38
2023/12/19 00:41:44;;;;;;;3.53;0.60;;;24.40;44.30;;;;;;5123001;28;20562;-42
2023/12/19 00:44:10;;;;;;;0.75;0.45;;;24.50;43.70;;;;;;5118658;28;20035;-37
2023/12/19 00:46:36;;;;;;;1.85;0.40;;;24.50;43.70;;;;;;5121820;28;20102;-39
2023/12/19 00:49:02;;;;;;;0.57;0.50;;;24.50;43.30;;;;;;5121620;27;20074;-39
2023/12/19 00:51:28;;;;;;;2.05;0.50;;;24.50;43.20;;;;;;5123024;28;20657;-39
2023/12/19 00:53:55;;;;;;;0.40;0.40;;;24.60;43.20;;;;;;5118528;27;20047;-39
2023/12/19 00:56:21;;;;;;;0.47;0.47;;;24.60;43.20;;;;;;5116627;28;20034;-39
2023/12/19 00:58:47;;;;;;;0.60;0.45;;;24.60;43.30;;;;;;5118654;28;20519;-39
2023/12/19 01:01:13;;;;;;;0.90;0.40;;;24.60;43.40;;;;;;5119735;28;20095;-39
2023/12/19 01:03:39;;;;;;;0.90;0.63;;;24.60;43.40;;;;;;5114944;28;22230;-39
2023/12/19 01:06:06;;;;;;;0.85;0.60;;;24.60;43.40;;;;;;5119445;28;20108;-39
2023/12/19 01:08:32;;;;;;;;;;;24.70;43.30;;;;;;5118894;27;20024;-39
2023/12/19 01:10:59;;;;;;;0.73;0.50;;;24.70;43.30;;;;;;5117792;28;19946;-40
2023/12/19 01:13:25;;;;;;;1.83;0.60;;;24.80;43.20;;;;;;5113387;28;20035;-38
2023/12/19 01:15:51;;;;;;;1.13;0.50;;;24.80;43.00;;;;;;5114590;28;20094;-39
2023/12/19 01:18:17;;;;;;;0.50;0.40;;;24.80;43.00;;;;;;5117709;28;20035;-39
2023/12/19 01:20:45;;;;;;;0.60;0.50;;;24.80;42.90;;;;;;5114666;28;20045;-39
2023/12/19 01:23:11;;;;;;;0.43;0.43;;;24.80;42.90;;;;;;5112321;27;20058;-39
2023/12/19 01:25:39;;;;;;;0.47;0.47;;;24.90;43.10;;;;;;5121825;28;20024;-39
2023/12/19 01:28:05;;;;;;;0.75;0.60;;;24.90;43.00;;;;;;5114765;28;20049;-39
2023/12/19 01:30:31;;;;;;;0.57;0.57;;;25.00;43.00;;;;;;5115639;28;20019;-39
2023/12/19 01:32:57;;;;;;;0.40;0.40;;;25.00;43.00;;;;;;5113168;28;20743;-39
2023/12/19 01:35:24;;;;;;;0.68;0.50;;;25.00;43.00;;;;;;5119484;27;20057;-38
2023/12/19 01:37:50;;;;;;;0.70;0.60;;;25.00;43.00;;;;;;5111341;28;20024;-39
2023/12/19 01:40:16;;;;;;;0.70;0.50;;;25.00;43.10;;;;;;5112398;27;20032;-39
2023/12/19 01:42:42;;;;;;;0.63;0.50;;;25.10;43.10;;;;;;5117122;28;20024;-39
2023/12/19 01:45:15;;;;;;;0.57;0.50;;;25.10;43.50;;;;;;5115681;27;20024;-39
2023/12/19 01:47:43;;;;;;;1.02;0.60;;;24.90;43.80;;;;;;5112676;28;20047;-39
2023/12/19 01:50:15;;;;;;;3.33;0.50;;;24.80;44.00;;;;;;5119392;28;21573;-39
2023/12/19 01:52:43;;;;;;;0.38;0.30;;;24.80;44.20;;;;;;5095903;28;20491;-39
2023/12/19 01:55:09;;;;;;;1.00;0.60;;;24.70;44.30;;;;;;5115640;28;20034;-39
2023/12/19 01:57:36;;;;;;;0.50;0.50;;;24.60;44.20;;;;;;5095918;28;20143;-39
2023/12/19 02:00:03;;;;;;;0.40;0.40;;;24.50;44.20;;;;;;5097487;28;20563;-38
2023/12/19 02:02:29;;;;;;;0.50;0.50;;;24.40;44.00;;;;;;5101277;28;20543;-39
2023/12/19 02:04:57;;;;;;;0.80;0.60;;;24.30;44.10;;;;;;5117838;28;20058;-39
2023/12/19 02:07:23;;;;;;;0.75;0.60;;;24.20;44.20;;;;;;5116916;28;20275;-39
2023/12/19 02:09:49;;;;;;;0.80;0.60;;;24.10;44.30;;;;;;5110009;28;20028;-39
2023/12/19 02:12:15;;;;;;;2.30;0.53;;;24.10;44.50;;;;;;5113990;28;20028;-38
2023/12/19 02:14:43;;;;;;;2.00;0.57;;;24.00;44.40;;;;;;5118151;28;20772;-38
2023/12/19 02:17:11;;;;;;;0.70;0.60;;;23.90;44.60;;;;;;5115950;28;20042;-38
2023/12/19 02:19:43;;;;;;;0.88;0.70;;;23.80;44.70;;;;;;5113887;28;20035;-39
2023/12/19 02:22:10;;;;;;;0.68;0.57;;;23.70;44.80;;;;;;5119805;27;20020;-38
2023/12/19 02:24:36;;;;;;;0.95;0.73;;;23.60;45.00;;;;;;5095476;28;20024;-39
2023/12/19 02:27:02;;;;;;;2.05;0.63;;;23.50;45.10;;;;;;5117162;28;20027;-38
2023/12/19 02:29:28;;;;;;;1.60;0.80;;;23.40;45.20;;;;;;5109733;27;20057;-38
2023/12/19 02:31:55;;;;;;;0.80;0.80;;;23.40;45.30;;;;;;5113807;28;20146;-38
2023/12/19 02:34:21;;;;;;;1.15;0.70;;;23.20;45.40;;;;;;5114298;27;20118;-38
2023/12/19 02:36:47;;;;;;;1.27;0.63;;;23.20;45.30;;;;;;5113882;28;20053;-37
2023/12/19 02:39:13;;;;;;;0.73;0.60;;;23.30;44.90;;;;;;5110244;28;20020;-39
2023/12/19 02:41:40;;;;;;;0.70;0.60;;;23.40;44.60;;;;;;5114963;28;20024;-38
2023/12/19 02:44:06;;;;;;;0.80;0.60;;;23.50;44.60;;;;;;5120313;27;20494;-38
2023/12/19 02:46:32;;;;;;;1.17;0.63;;;23.40;44.90;;;;;;5120742;28;20046;-39
2023/12/19 02:48:59;;;;;;;0.77;0.60;;;23.30;45.00;;;;;;5120586;28;20074;-38
2023/12/19 02:51:26;;;;;;;0.85;0.65;;;23.30;45.00;;;;;;5118989;28;20057;-38
2023/12/19 02:53:52;;;;;;;1.08;0.80;;;23.10;44.90;;;;;;5110355;27;20038;-39
2023/12/19 02:56:19;;;;;;;0.60;0.60;;;23.10;45.00;;;;;;5113567;28;20566;-38
2023/12/19 02:58:47;;;;;;;0.85;0.70;;;23.00;45.10;;;;;;5111931;28;20146;-38
2023/12/19 03:01:13;;;;;;;1.10;0.68;;;22.90;45.20;;;;;;5112143;28;20031;-38
2023/12/19 03:03:40;;;;;;;1.52;0.88;;;22.80;45.20;;;;;;5108344;28;20027;-38
2023/12/19 03:06:07;;;;;;;1.23;0.70;;;22.70;45.30;;;;;;5115813;28;20035;-38
2023/12/19 03:08:35;;;;;;;2.00;0.80;;;22.60;45.20;;;;;;5113568;28;20099;-38
2023/12/19 03:11:01;;;;;;;0.70;0.50;;;22.60;45.30;;;;;;5113800;27;20780;-38
2023/12/19 03:13:27;;;;;;;0.50;0.50;;;22.50;45.20;;;;;;5113430;28;20039;-38
2023/12/19 03:15:54;;;;;;;0.80;0.80;;;22.60;44.70;;;;;;5107100;28;20032;-38
2023/12/19 03:18:24;;;;;;;1.10;0.70;;;22.70;44.50;;;;;;5097511;28;20031;-38
2023/12/19 03:20:53;;;;;;;0.50;0.50;;;22.80;44.50;;;;;;5116560;28;20081;-38
2023/12/19 03:23:20;;;;;;;1.35;0.50;;;22.90;44.30;;;;;;5114324;28;20031;-38
2023/12/19 03:25:46;;;;;;;;;;;23.00;44.20;;;;;;5117571;28;20023;-38
2023/12/19 03:28:13;;;;;;;1.10;0.43;;;23.00;44.00;;;;;;5112480;28;19923;-38
2023/12/19 03:30:39;;;;;;;0.63;0.40;;;23.10;43.90;;;;;;5112079;28;20031;-38
2023/12/19 03:33:05;;;;;;;0.60;0.40;;;23.10;43.70;;;;;;5115734;28;20039;-38
2023/12/19 03:35:31;;;;;;;0.70;0.50;;;23.00;44.00;;;;;;5115484;28;20027;-39
2023/12/19 03:37:58;;;;;;;0.60;0.60;;;22.90;44.30;;;;;;5119066;28;20038;-38
2023/12/19 03:40:24;;;;;;;0.53;0.50;;;22.80;44.20;;;;;;5117479;27;20031;-38
2023/12/19 03:42:50;;;;;;;0.60;0.47;;;22.70;44.80;;;;;;5118491;28;20091;-38
2023/12/19 03:45:16;;;;;;;0.68;0.50;;;22.60;44.30;;;;;;5117831;28;20059;-39
2023/12/19 03:47:43;;;;;;;0.50;0.50;;;22.50;44.40;;;;;;5120210;28;20041;-38
2023/12/19 03:50:09;;;;;;;;;;;22.40;44.30;;;;;;5120107;28;20111;-38
2023/12/19 03:52:36;;;;;;;0.73;0.52;;;22.40;44.40;;;;;;5119748;28;19911;-38
2023/12/19 03:55:03;;;;;;;1.15;0.60;;;22.30;44.60;;;;;;5117498;28;20097;-38
2023/12/19 03:57:29;;;;;;;0.50;0.50;;;22.20;44.80;;;;;;5119821;28;20084;-38
2023/12/19 03:59:55;;;;;;;0.75;0.60;;;22.10;45.00;;;;;;5119068;28;20112;-38
2023/12/19 04:02:21;;;;;;;0.82;0.40;;;22.20;44.70;;;;;;5119144;28;20039;-38
2023/12/19 04:04:47;;;;;;;0.80;0.50;;;22.30;44.30;;;;;;5118760;28;20035;-39
2023/12/19 04:07:14;;;;;;;0.80;0.40;;;22.40;44.20;;;;;;5114832;28;20058;-38
2023/12/19 04:09:40;;;;;;;0.70;0.45;;;22.50;44.10;;;;;;5119465;28;20019;-38
2023/12/19 04:12:07;;;;;;;0.98;0.50;;;22.50;43.90;;;;;;5119970;28;20035;-38
2023/12/19 04:14:33;;;;;;;0.60;0.40;;;22.60;43.80;;;;;;5122529;28;20054;-38
2023/12/19 04:16:59;;;;;;;0.40;0.40;;;22.70;43.70;;;;;;5121386;28;20075;-39
2023/12/19 04:19:26;;;;;;;0.40;0.40;;;22.70;43.50;;;;;;5123830;28;20855;-38
2023/12/19 04:21:52;;;;;;;0.60;0.50;;;22.70;43.40;;;;;;5122821;28;20092;-38
2023/12/19 04:24:19;;;;;;;0.47;0.47;;;22.80;43.40;;;;;;5124115;28;20059;-38
2023/12/19 04:26:48;;;;;;;;;;;22.80;43.30;;;;;;5119658;28;20036;-38
2023/12/19 04:29:14;;;;;;;0.28;0.20;;;22.90;43.30;;;;;;5120533;27;19919;-38
2023/12/19 04:31:41;;;;;;;0.70;0.30;;;22.90;43.10;;;;;;5105090;28;20023;-38
2023/12/19 04:34:07;;;;;;;1.00;0.40;;;23.00;43.10;;;;;;5120683;28;20073;-39
2023/12/19 04:36:34;;;;;;;0.53;0.20;;;23.00;43.00;;;;;;5123526;28;20027;-38
2023/12/19 04:39:00;;;;;;;0.30;0.30;;;23.00;43.00;;;;;;5105838;28;20447;-39
2023/12/19 04:41:26;;;;;;;0.57;0.40;;;23.00;43.00;;;;;;5123875;28;20019;-38
2023/12/19 04:43:52;;;;;;;0.32;0.30;;;23.10;42.90;;;;;;5123417;28;20107;-38
2023/12/19 04:46:18;;;;;;;0.30;0.30;;;23.10;42.90;;;;;;5123236;27;20051;-38
2023/12/19 04:48:45;;;;;;;0.30;0.30;;;23.20;42.80;;;;;;5123727;28;20080;-38
2023/12/19 04:51:22;;;;;;;0.68;0.30;;;23.10;43.20;;;;;;5120503;28;20525;-38
2023/12/19 04:53:49;;;;;;;0.77;0.40;;;23.00;43.50;;;;;;5121034;28;20159;-38
2023/12/19 04:56:16;;;;;;;0.47;0.30;;;22.90;43.40;;;;;;5121192;28;20110;-38
2023/12/19 04:58:44;;;;;;;0.40;0.30;;;22.80;43.30;;;;;;5121893;28;20027;-38
2023/12/19 05:01:11;;;;;;;0.40;0.40;;;22.80;43.50;;;;;;5118670;28;20030;-38
2023/12/19 05:03:39;;;;;;;0.40;0.40;;;22.60;43.60;;;;;;5121567;28;20024;-38
2023/12/19 05:06:07;;;;;;;0.38;0.30;;;22.60;43.80;;;;;;5119652;28;20034;-38
2023/12/19 05:08:33;;;;;;;0.57;0.40;;;22.50;44.20;;;;;;5120456;28;20037;-38
2023/12/19 05:11:00;;;;;;;0.40;0.30;;;22.40;44.30;;;;;;5120281;28;20076;-38
2023/12/19 05:13:28;;;;;;;0.28;0.20;;;22.30;44.50;;;;;;5121361;28;20035;-38
2023/12/19 05:15:55;;;;;;;0.82;0.30;;;22.20;44.30;;;;;;5120502;28;20023;-38
2023/12/19 05:18:21;;;;;;;0.20;0.20;;;22.30;43.90;;;;;;5121851;28;20055;-37
2023/12/19 05:20:47;;;;;;;0.68;0.30;;;22.40;43.60;;;;;;5119979;28;21121;-38
2023/12/19 05:23:14;;;;;;;0.47;0.20;;;22.50;43.40;;;;;;5137321;27;20052;-38
2023/12/19 05:25:41;;;;;;;0.22;0.20;;;22.60;43.40;;;;;;5120329;27;20059;-37
2023/12/19 05:28:07;;;;;;;0.30;0.30;;;22.60;43.20;;;;;;5120129;28;20082;-37
2023/12/19 05:30:33;;;;;;;0.50;0.28;;;22.70;43.70;;;;;;5121287;28;20043;-37
2023/12/19 05:32:59;;;;;;;0.45;0.20;;;22.70;43.20;;;;;;5120673;28;20031;-37
2023/12/19 05:35:25;;;;;;;0.55;0.25;;;22.70;43.00;;;;;;5120987;28;20035;-37
2023/12/19 05:37:51;;;;;;;0.32;0.30;;;22.80;43.10;;;;;;5117307;28;20024;-37
2023/12/19 05:40:18;;;;;;;0.17;0.17;;;22.80;43.00;;;;;;5117011;28;20035;-38
2023/12/19 05:42:44;;;;;;;0.30;0.30;;;22.90;43.00;;;;;;5113056;28;20023;-38
2023/12/19 05:45:10;;;;;;;0.35;0.20;;;22.90;43.10;;;;;;5118383;28;20272;-38
2023/12/19 05:47:36;;;;;;;0.32;0.20;;;22.90;43.20;;;;;;5120134;28;20043;-38
2023/12/19 05:50:02;;;;;;;0.20;0.20;;;23.00;43.20;;;;;;5118882;28;20054;-38
2023/12/19 05:52:29;;;;;;;0.37;0.20;;;23.10;43.20;;;;;;5119742;28;20019;-37
2023/12/19 05:54:55;;;;;;;0.25;0.20;;;23.10;43.00;;;;;;5118321;28;20502;-37
2023/12/19 05:57:21;;;;;;;0.20;0.20;;;23.10;42.90;;;;;;5118264;28;20028;-37
2023/12/19 05:59:47;;;;;;;0.22;0.20;;;23.20;42.90;;;;;;5120199;28;20761;-37
2023/12/19 06:02:13;;;;;;;0.20;0.20;;;23.20;42.70;;;;;;5121159;28;20053;-37
2023/12/19 06:04:39;;;;;;;0.10;0.10;;;23.20;42.60;;;;;;5119967;28;20035;-37
2023/12/19 06:07:06;;;;;;;0.57;0.23;;;23.20;42.50;;;;;;5119556;27;20024;-37
2023/12/19 06:09:32;;;;;;;0.38;0.30;;;23.30;42.40;;;;;;5118264;28;20028;-37
2023/12/19 06:11:59;;;;;;;0.20;0.20;;;23.30;42.50;;;;;;5118439;28;20031;-38
2023/12/19 06:14:25;;;;;;;0.22;0.20;;;23.30;42.30;;;;;;5119870;28;20044;-37
2023/12/19 06:16:51;;;;;;;0.52;0.20;;;23.30;42.30;;;;;;5119180;28;20027;-38
2023/12/19 06:19:17;;;;;;;0.10;0.10;;;23.40;42.20;;;;;;5120104;28;20055;-37
2023/12/19 06:21:43;;;;;;;0.30;0.20;;;23.40;42.10;;;;;;5119831;28;20027;-37
2023/12/19 06:24:09;;;;;;;0.25;0.20;;;23.40;42.20;;;;;;5119927;28;20059;-37
2023/12/19 06:26:35;;;;;;;0.63;0.10;;;23.40;42.70;;;;;;5119967;28;20026;-38
2023/12/19 06:29:03;;;;;;;0.22;0.22;;;23.40;42.00;;;;;;5117014;27;20028;-37
2023/12/19 06:31:29;;;;;;;0.25;0.20;;;23.40;41.90;;;;;;5121029;27;20034;-37
2023/12/19 06:33:55;;;;;;;0.55;0.20;;;23.50;41.80;;;;;;5116701;28;20035;-38
2023/12/19 06:36:29;;;;;;;0.10;0.10;;;23.50;41.80;;;;;;5108394;28;20030;-39
2023/12/19 06:38:55;;;;;;;0.17;0.10;;;23.50;41.70;;;;;;5114154;28;20087;-38
2023/12/19 06:41:21;;;;;;;0.22;0.20;;;23.60;41.60;;;;;;5115366;27;20023;-38
2023/12/19 06:43:48;;;;;;;0.28;0.10;;;23.60;41.50;;;;;;5118110;27;20039;-38
2023/12/19 06:46:17;;;;;;;0.10;0.10;;;23.60;41.50;;;;;;5117523;28;20027;-39
2023/12/19 06:48:43;;;;;;;0.93;0.20;;;23.60;41.40;;;;;;5121093;27;20054;-37
2023/12/19 06:51:10;;;;;;;0.30;0.25;;;23.70;41.30;;;;;;5119112;27;20027;-39
2023/12/19 06:53:39;;;;;;;1.80;0.20;;;23.30;39.10;;;;;;5116364;27;20060;-38
2023/12/19 06:56:05;;;;;;;0.50;0.20;;;23.30;41.50;;;;;;5115021;28;20295;-39
2023/12/19 06:58:32;;;;;;;0.65;0.17;;;23.20;41.70;;;;;;5118996;28;20050;-39
2023/12/19 07:00:58;;;;;;;0.38;0.22;;;23.10;41.80;;;;;;5118223;28;20042;-42
2023/12/19 07:03:24;;;;;;;2.55;0.30;;;23.00;42.00;;;;;;5118502;28;20031;-38
2023/12/19 07:05:53;;;;;;;0.20;0.20;;;22.90;42.10;;;;;;5117798;28;20036;-38
2023/12/19 07:08:19;;;;;;;0.40;0.17;;;22.80;42.20;;;;;;5117661;28;20038;-38
2023/12/19 07:10:45;;;;;;;0.20;0.13;;;22.70;42.30;;;;;;5118262;28;20160;-38
2023/12/19 07:13:11;;;;;;;0.70;0.20;;;22.60;42.40;;;;;;5115286;28;20046;-39
2023/12/19 07:15:37;;;;;;;0.30;0.30;;;22.50;42.40;;;;;;5118816;28;20229;-38
2023/12/19 07:18:04;;;;;;;0.52;0.20;;;22.40;42.30;;;;;;5116028;28;20024;-38
2023/12/19 07:20:30;;;;;;;0.40;0.20;;;22.50;41.80;;;;;;5117934;28;20028;-38
2023/12/19 07:22:56;;;;;;;0.30;0.15;;;22.60;41.50;;;;;;5116487;28;20666;-38
2023/12/19 07:25:22;;;;;;;0.20;0.20;;;22.70;41.50;;;;;;5118204;28;20051;-38
2023/12/19 07:27:48;;;;;;;0.22;0.20;;;22.60;41.40;;;;;;5119550;28;20553;-38
2023/12/19 07:30:14;;;;;;;1.67;0.30;;;22.70;41.30;;;;;;5118310;28;20031;-39
2023/12/19 07:32:41;;;;;;;0.20;0.13;;;22.70;41.30;;;;;;5115986;28;20087;-38
2023/12/19 07:35:08;;;;;;;0.40;0.20;;;22.70;41.20;;;;;;5099436;28;20039;-38
2023/12/19 07:37:34;;;;;;;0.52;0.20;;;22.80;41.10;;;;;;5119945;28;20028;-38
2023/12/19 07:40:00;;;;;;;0.15;0.15;;;22.80;41.10;;;;;;5118564;28;20099;-38
2023/12/19 07:42:26;;;;;;;0.20;0.13;;;22.80;41.10;;;;;;5119659;28;20027;-38
2023/12/19 07:44:52;;;;;;;1.00;0.10;;;22.80;41.00;;;;;;5115643;28;20028;-38
2023/12/19 07:47:18;;;;;;;1.10;0.10;;;22.90;41.00;;;;;;5115098;28;20130;-38
2023/12/19 07:49:45;;;;;;;0.38;0.20;;;22.90;40.90;;;;;;5119320;28;20024;-38
2023/12/19 07:52:11;;;;;;;0.90;0.10;;;22.90;40.90;;;;;;5119031;28;20031;-38
2023/12/19 07:54:37;;;;;;;0.20;0.20;;;22.90;40.90;;;;;;5116784;28;20043;-38
2023/12/19 07:57:03;;;;;;;0.40;0.15;;;22.90;41.00;;;;;;5117326;28;20024;-38
2023/12/19 07:59:30;;;;;;;0.20;0.10;;;23.00;41.20;;;;;;5116463;28;20040;-38
2023/12/19 08:01:56;;;;;;;0.20;0.10;;;23.00;41.30;;;;;;5117022;28;20036;-38
2023/12/19 08:04:22;;;;;;;0.30;0.20;;;23.10;41.30;;;;;;5118128;28;20063;-38
2023/12/19 08:06:49;;;;;;;0.10;0.10;;;23.10;41.20;;;;;;5116148;28;20023;-38
2023/12/19 08:09:15;;;;;;;0.40;0.20;;;23.10;41.10;;;;;;5118164;28;20027;-38
2023/12/19 08:11:41;;;;;;;0.25;0.10;;;23.20;41.10;;;;;;5096364;28;20092;-38
2023/12/19 08:14:07;;;;;;;0.25;0.20;;;23.20;41.00;;;;;;5115693;28;20036;-38
2023/12/19 08:16:33;;;;;;;0.10;0.10;;;23.20;40.90;;;;;;5115703;28;20076;-38
2023/12/19 08:18:59;;;;;;;0.10;0.08;;;23.20;41.00;;;;;;5114483;28;20588;-38
2023/12/19 08:21:25;;;;;;;0.20;0.20;;;23.20;41.00;;;;;;5117294;28;20027;-38
2023/12/19 08:23:52;;;;;;;0.10;0.10;;;23.20;40.90;;;;;;5115213;28;20039;-38
2023/12/19 08:26:18;;;;;;;0.13;0.13;;;23.20;40.90;;;;;;5115210;28;20033;-38
2023/12/19 08:28:44;;;;;;;0.10;0.10;;;23.20;40.80;;;;;;5119188;28;20036;-38
2023/12/19 08:31:10;;;;;;;0.13;0.10;;;23.30;40.70;;;;;;5117172;28;20055;-38
2023/12/19 08:33:38;;;;;;;0.30;0.20;;;23.30;40.70;;;;;;5114195;28;20044;-38
2023/12/19 08:36:05;;;;;;;0.13;0.10;;;23.30;40.70;;;;;;5113655;28;20036;-38
2023/12/19 08:38:31;;;;;;;0.10;0.10;;;23.30;40.70;;;;;;5116397;28;20047;-38
2023/12/19 08:40:57;;;;;;;0.10;0.10;;;23.30;40.60;;;;;;5116332;28;20042;-39
2023/12/19 08:43:24;;;;;;;0.20;0.10;;;23.30;40.50;;;;;;5116649;28;20101;-38
2023/12/19 08:45:50;;;;;;;0.15;0.10;;;23.30;40.60;;;;;;5112888;28;20031;-38
2023/12/19 08:48:17;;;;;;;0.22;0.10;;;23.40;40.50;;;;;;5111480;28;20036;-38
2023/12/19 08:50:43;;;;;;;;;;;23.30;40.50;;;;;;5096263;28;20053;-38
2023/12/19 08:53:09;;;;;;;0.30;0.10;;;23.30;40.70;;;;;;5110077;28;19924;-38
2023/12/19 08:55:35;;;;;;;0.20;0.20;;;23.30;40.60;;;;;;5116548;28;20776;-38
2023/12/19 08:58:01;;;;;;;0.10;0.10;;;23.40;40.70;;;;;;5112406;28;20035;-38
2023/12/19 09:00:27;;;;;;;0.57;0.20;;;23.40;40.60;;;;;;5113306;28;20027;-39
2023/12/19 09:02:54;;;;;;;0.10;0.10;;;23.40;40.50;;;;;;5116294;27;20042;-38
2023/12/19 09:05:21;;;;;;;0.20;0.10;;;23.40;41.00;;;;;;5117222;27;20028;-39
2023/12/19 09:07:47;;;;;;;0.13;0.10;;;23.40;40.40;;;;;;5112207;28;20057;-38
2023/12/19 09:10:13;;;;;;;0.13;0.13;;;23.50;40.50;;;;;;5098356;28;20028;-38
2023/12/19 09:12:40;;;;;;;0.23;0.10;;;23.50;40.40;;;;;;5117103;28;20028;-39
2023/12/19 09:15:07;;;;;;;0.20;0.20;;;23.50;40.40;;;;;;5115560;28;20295;-38
2023/12/19 09:17:33;;;;;;;1.25;0.20;;;23.50;40.40;;;;;;5115628;28;20107;-38
2023/12/19 09:19:59;;;;;;;0.22;0.20;;;23.50;40.30;;;;;;5115135;28;20099;-38
2023/12/19 09:22:26;;;;;;;2.00;0.25;;;23.50;40.30;;;;;;5117399;28;20039;-39
2023/12/19 09:24:52;;;;;;;0.27;0.10;;;23.50;40.30;;;;;;5113183;27;20020;-38
2023/12/19 09:27:18;;;;;;;0.33;0.10;;;23.50;40.20;;;;;;5110727;28;20027;-39
2023/12/19 09:29:44;;;;;;;0.10;0.10;;;23.60;40.20;;;;;;5116630;28;20032;-39
2023/12/19 09:32:12;;;;;;;0.10;0.10;;;23.60;40.20;;;;;;5121376;28;20036;-38
2023/12/19 09:34:39;;;;;;;;;;;23.60;40.10;;;;;;5122078;28;20037;-39
2023/12/19 09:37:05;;;;;;;0.28;0.13;;;23.60;40.20;;;;;;5122180;27;19971;-38
2023/12/19 09:39:32;;;;;;;0.10;0.10;;;23.60;39.90;;;;;;5120093;28;20024;-39
2023/12/19 09:41:58;;;;;;;0.38;0.10;;;23.60;39.90;;;;;;5119277;28;20039;-39
2023/12/19 09:44:27;;;;;;;0.37;0.20;;;23.60;39.90;;;;;;5120751;28;20135;-39
2023/12/19 09:46:53;;;;;;;0.17;0.10;;;23.60;39.90;;;;;;5116647;28;20279;-38
2023/12/19 09:49:43;;;;;;;0.30;0.10;;;23.60;39.80;;;;;;5097619;28;20036;-39
2023/12/19 09:52:12;;;;;;;0.20;0.10;;;23.60;39.70;;;;;;5018021;28;20037;-38
2023/12/19 09:54:38;;;;;;;0.13;0.10;;;23.70;39.70;;;;;;5017431;28;20050;-38
2023/12/19 09:57:04;;;;;;;0.20;0.20;;;23.70;39.70;;;;;;5019242;28;20049;-38
2023/12/19 09:59:30;;;;;;;0.10;0.10;;;23.60;39.60;;;;;;5018615;28;20038;-39
2023/12/19 10:01:56;;;;;;;0.22;0.20;;;23.70;39.60;;;;;;5001869;28;20123;-39
2023/12/19 10:04:22;;;;;;;0.10;0.10;;;23.70;39.50;;;;;;5019427;28;20141;-39
2023/12/19 10:06:56;;;;;;;0.10;0.10;;;23.70;39.40;;;;;;5018864;28;20153;-38
2023/12/19 10:09:25;;;;;;;0.15;0.15;;;23.70;39.40;;;;;;5017568;28;20068;-38
2023/12/19 10:12:07;;;;;;;0.10;0.10;;;23.70;39.30;;;;;;5017853;28;20037;-38
2023/12/19 10:14:33;;;;;;;0.10;0.10;;;23.70;39.30;;;;;;5019335;28;20068;-38
2023/12/19 10:17:04;;;;;;;0.25;0.10;;;23.70;39.40;;;;;;5013621;28;20072;-38
2023/12/19 10:19:30;;;;;;;0.10;0.10;;;23.70;39.40;;;;;;5032725;28;20041;-38
2023/12/19 10:22:16;;;;;;;0.65;0.10;;;23.70;39.40;;;;;;5018098;28;20056;-39
2023/12/19 10:24:42;;;;;;;0.10;0.10;;;23.60;39.60;;;;;;5020327;28;20034;-39
2023/12/19 10:27:08;;;;;;;0.30;0.10;;;23.60;39.50;;;;;;5015321;28;20041;-38
2023/12/19 10:29:38;;;;;;;0.80;0.10;;;23.70;39.40;;;;;;5069443;28;20510;-39
2023/12/19 10:32:17;;;;;;;0.10;0.10;;;23.70;39.50;;;;;;5093096;28;20038;-38
2023/12/19 10:34:44;;;;;;;0.22;0.22;;;23.70;39.60;;;;;;5097161;28;20040;-38
2023/12/19 10:37:20;;;;;;;0.20;0.20;;;23.60;40.10;;;;;;5099215;28;20029;-38
2023/12/19 10:39:47;;;;;;;0.10;0.10;;;23.70;39.50;;;;;;5094602;28;20039;-38
2023/12/19 10:42:13;;;;;;;0.10;0.10;;;23.60;39.40;;;;;;5097519;28;20031;-38
2023/12/19 10:44:40;;;;;;;0.10;0.10;;;23.60;39.40;;;;;;5099328;28;20039;-38
2023/12/19 10:47:10;;;;;;;0.52;0.10;;;23.70;39.40;;;;;;5102681;28;20021;-39
2023/12/19 10:49:37;;;;;;;0.22;0.10;;;23.60;39.30;;;;;;5117629;28;20032;-39
2023/12/19 10:52:05;;;;;;;1.52;0.10;;;23.60;39.30;;;;;;5114440;27;20019;-39
2023/12/19 10:54:32;;;;;;;0.65;0.10;;;23.60;39.30;;;;;;5101627;28;20044;-38
2023/12/19 10:57:17;;;;;;;0.20;0.20;;;23.60;39.30;;;;;;5117467;28;20032;-39
2023/12/19 11:00:13;;;;;;;0.10;0.10;;;23.70;39.20;;;;;;5119361;28;20446;-38
2023/12/19 11:03:05;;;;;;;0.40;0.20;;;23.70;39.10;;;;;;5100335;28;20087;-39
2023/12/19 11:05:36;;;;;;;0.10;0.10;;;23.60;39.20;;;;;;5120314;28;20411;-39
2023/12/19 11:08:04;;;;;;;1.15;0.10;;;23.60;39.30;;;;;;5099578;28;20035;-38
2023/12/19 11:10:32;;;;;;;1.85;0.10;;;23.70;39.40;;;;;;5117648;28;20039;-39
2023/12/19 11:12:59;;;;;;;0.03;0.00;;;23.70;39.60;;;;;;5116868;28;20057;-39
2023/12/19 11:15:25;;;;;;;0.40;0.20;;;23.60;39.90;;;;;;5117451;28;20074;-38
2023/12/19 11:18:21;;;;;;;0.10;0.10;;;23.60;40.00;;;;;;5093472;28;20040;-38
2023/12/19 11:20:56;;;;;;;0.20;0.13;;;23.60;39.90;;;;;;5117737;28;20096;-38
2023/12/19 11:23:42;;;;;;;0.40;0.10;;;23.60;40.00;;;;;;5114141;28;20034;-38
2023/12/19 11:26:29;;;;;;;0.30;0.10;;;23.60;39.90;;;;;;5098560;28;20105;-38
2023/12/19 11:28:55;;;;;;;0.10;0.10;;;23.60;39.80;;;;;;5100680;28;20084;-38
2023/12/19 11:31:32;;;;;;;0.10;0.00;;;23.60;39.70;;;;;;5115880;28;20027;-38
2023/12/19 11:34:24;;;;;;;0.30;0.20;;;23.60;39.70;;;;;;5131343;27;20072;-38
2023/12/19 11:37:04;;;;;;;0.25;0.10;;;23.60;39.60;;;;;;5117806;28;20039;-38
2023/12/19 11:39:31;;;;;;;0.70;0.20;;;23.60;39.50;;;;;;5095188;28;20032;-39
2023/12/19 11:41:57;;;;;;;0.20;0.20;;;23.60;39.60;;;;;;5116175;28;20019;-39
2023/12/19 11:44:33;;;;;;;0.27;0.10;;;23.60;39.50;;;;;;5113764;28;20635;-39
2023/12/19 11:47:16;;;;;;;0.20;0.10;;;23.60;39.50;;;;;;5104982;28;20024;-39
2023/12/19 11:49:42;;;;;;;0.20;0.10;;;23.60;39.40;;;;;;5094296;28;20046;-39
2023/12/19 11:52:10;;;;;;;0.05;0.00;;;23.60;39.50;;;;;;5114117;27;20032;-38
2023/12/19 11:54:36;;;;;;;0.17;0.10;;;23.60;39.50;;;;;;5091696;28;20160;-38
2023/12/19 11:57:03;;;;;;;0.05;0.05;;;23.60;39.40;;;;;;5117052;28;20130;-38
2023/12/19 11:59:46;;;;;;;0.88;0.10;;;23.60;40.00;;;;;;5115254;28;20039;-38
2023/12/19 12:02:12;;;;;;;0.30;0.13;;;23.60;39.50;;;;;;5115192;28;20032;-38
2023/12/19 12:04:38;;;;;;;0.10;0.10;;;23.60;39.40;;;;;;5117532;28;20020;-38
2023/12/19 12:07:05;;;;;;;0.10;0.10;;;23.60;39.40;;;;;;5114631;28;21494;-38
2023/12/19 12:09:31;;;;;;;0.40;0.20;;;23.60;39.40;;;;;;5116348;28;20119;-38
2023/12/19 12:11:57;;;;;;;0.20;0.10;;;23.60;39.30;;;;;;5115656;28;20063;-38
2023/12/19 12:14:24;;;;;;;0.20;0.10;;;23.60;39.30;;;;;;5113109;28;20036;-38
2023/12/19 12:16:51;;;;;;;0.05;0.00;;;23.60;39.30;;;;;;5114255;28;20062;-38
2023/12/19 12:19:19;;;;;;;0.45;0.20;;;23.60;39.40;;;;;;5115500;28;20053;-39
2023/12/19 12:21:49;;;;;;;0.10;0.10;;;23.60;39.30;;;;;;5081839;28;20032;-38
2023/12/19 12:24:20;;;;;;;0.10;0.10;;;23.60;39.40;;;;;;5108448;28;20043;-38
2023/12/19 12:26:50;;;;;;;0.38;0.10;;;23.60;39.30;;;;;;5129085;28;20114;-38
2023/12/19 12:29:19;;;;;;;0.47;0.10;;;23.60;39.20;;;;;;5115801;28;20050;-39
2023/12/19 12:31:48;;;;;;;0.60;0.10;;;23.60;39.20;;;;;;5110955;28;20047;-38
2023/12/19 12:34:17;;;;;;;0.90;0.17;;;23.60;39.30;;;;;;5116622;28;20054;-38
2023/12/19 12:36:50;;;;;;;1.08;0.00;;;23.50;39.20;;;;;;5118391;28;20028;-38
2023/12/19 12:39:20;;;;;;;0.45;0.17;;;23.60;39.20;;;;;;5118635;28;20028;-39
2023/12/19 12:41:46;;;;;;;0.20;0.10;;;23.60;39.10;;;;;;5104277;28;20043;-38
2023/12/19 12:44:12;;;;;;;0.20;0.10;;;23.60;39.10;;;;;;5122990;28;20055;-38
2023/12/19 12:46:45;;;;;;;0.30;0.20;;;23.60;39.10;;;;;;5123851;27;20030;-38
2023/12/19 12:49:21;;;;;;;0.17;0.10;;;23.60;39.00;;;;;;5123188;27;20050;-38